createdAt,value
2018-02-10T00:01:02.825Z,79.94
2018-02-10T00:03:28.862Z,79.47
2018-02-10T00:05:54.861Z,79.58
2018-02-10T00:08:20.928Z,79.82
2018-02-10T00:10:46.987Z,80.04
2018-02-10T00:13:13.018Z,80.30
2018-02-10T00:15:39.054Z,79.89
2018-02-10T00:18:05.096Z,79.72
2018-02-10T00:20:31.116Z,79.76
2018-02-10T00:22:57.086Z,80.15
2018-02-10T00:25:23.094Z,79.59
2018-02-10T00:27:49.128Z,79.29
2018-02-10T00:30:15.223Z,79.50
2018-02-10T00:32:41.214Z,79.94
2018-02-10T00:35:07.267Z,79.79
2018-02-10T00:37:33.241Z,79.15
2018-02-10T00:39:59.205Z,80.01
2018-02-10T00:42:25.286Z,79.73
2018-02-10T00:44:51.304Z,79.77
2018-02-10T00:47:17.302Z,79.43
2018-02-10T00:49:43.353Z,79.53
2018-02-10T00:52:09.394Z,79.65
2018-02-10T00:54:35.410Z,79.89
2018-02-10T00:57:01.398Z,79.98
2018-02-10T00:59:27.342Z,79.73
2018-02-10T01:01:53.357Z,79.33
2018-02-10T01:04:19.357Z,79.40
2018-02-10T01:06:45.365Z,79.99
2018-02-10T01:09:11.365Z,79.68
2018-02-10T01:11:37.432Z,79.56
2018-02-10T01:14:03.433Z,78.93
2018-02-10T01:16:29.393Z,79.87
2018-02-10T01:18:55.397Z,79.50
2018-02-10T01:21:21.437Z,78.90
2018-02-10T01:23:47.487Z,79.62
2018-02-10T01:26:13.497Z,78.91
2018-02-10T01:28:39.450Z,79.05
2018-02-10T01:31:05.444Z,78.98
2018-02-10T01:33:31.445Z,78.50
2018-02-10T01:35:57.473Z,79.10
2018-02-10T01:38:23.485Z,78.36
2018-02-10T01:40:49.508Z,78.61
2018-02-10T01:43:15.464Z,78.72
2018-02-10T01:45:41.517Z,79.24
2018-02-10T01:48:07.490Z,79.66
2018-02-10T01:50:33.488Z,79.94
2018-02-10T01:52:59.513Z,79.04
2018-02-10T01:55:25.634Z,79.12
2018-02-10T01:57:51.659Z,78.98
2018-02-10T02:00:17.645Z,78.80
2018-02-10T02:02:43.660Z,79.40
2018-02-10T02:05:09.663Z,79.46
2018-02-10T02:07:35.656Z,78.55
2018-02-10T02:10:01.741Z,78.54
2018-02-10T02:12:27.725Z,78.40
2018-02-10T02:14:54.033Z,79.18
2018-02-10T02:17:20.036Z,80.06
2018-02-10T02:19:45.985Z,81.29
2018-02-10T02:22:11.977Z,81.74
2018-02-10T02:24:37.961Z,81.39
2018-02-10T02:27:03.992Z,80.89
2018-02-10T02:29:29.986Z,80.82
2018-02-10T02:31:56.009Z,79.79
2018-02-10T02:34:22.317Z,79.80
2018-02-10T02:36:48.485Z,79.91
2018-02-10T02:39:14.552Z,79.98
2018-02-10T02:41:40.616Z,80.11
2018-02-10T02:44:06.619Z,80.45
2018-02-10T02:46:32.553Z,80.58
2018-02-10T02:48:58.544Z,81.08
2018-02-10T02:51:24.560Z,81.06
2018-02-10T02:53:50.570Z,80.62
2018-02-10T02:56:16.615Z,80.84
2018-02-10T02:58:42.661Z,81.02
2018-02-10T03:01:08.669Z,80.74
2018-02-10T03:03:34.657Z,80.50
2018-02-10T03:06:00.681Z,80.43
2018-02-10T03:08:26.669Z,80.28
2018-02-10T03:10:53.564Z,80.34
2018-02-10T03:13:19.639Z,80.56
2018-02-10T03:15:45.647Z,80.77
2018-02-10T03:18:11.640Z,81.10
2018-02-10T03:20:37.728Z,81.07
2018-02-10T03:23:03.728Z,80.41
2018-02-10T03:25:29.736Z,80.53
2018-02-10T03:27:56.025Z,80.86
2018-02-10T03:30:22.007Z,81.14
2018-02-10T03:32:48.014Z,81.17
2018-02-10T03:35:14.065Z,80.77
2018-02-10T03:37:40.144Z,80.73
2018-02-10T03:40:06.102Z,80.94
2018-02-10T03:42:31.981Z,80.97
2018-02-10T03:44:57.999Z,81.06
2018-02-10T03:47:24.068Z,81.31
2018-02-10T03:49:50.101Z,81.41
2018-02-10T03:52:16.111Z,81.17
2018-02-10T03:54:42.187Z,81.16
2018-02-10T03:57:08.212Z,81.27
2018-02-10T03:59:34.232Z,81.22
2018-02-10T04:02:00.256Z,81.13
2018-02-10T04:04:26.233Z,80.59
2018-02-10T04:06:52.290Z,80.57
2018-02-10T04:09:18.300Z,80.85
2018-02-10T04:11:44.392Z,81.18
2018-02-10T04:14:10.409Z,80.97
2018-02-10T04:16:36.432Z,80.85
2018-02-10T04:19:02.464Z,81.07
2018-02-10T04:21:28.466Z,81.37
2018-02-10T04:23:54.484Z,81.44
2018-02-10T04:26:20.494Z,81.43
2018-02-10T04:28:46.509Z,81.26
2018-02-10T04:31:12.456Z,81.40
2018-02-10T04:33:38.459Z,81.02
2018-02-10T04:36:04.488Z,81.34
2018-02-10T04:38:30.537Z,81.49
2018-02-10T04:40:56.538Z,81.54
2018-02-10T04:43:22.652Z,81.68
2018-02-10T04:45:48.710Z,81.73
2018-02-10T04:48:14.776Z,81.78
2018-02-10T04:50:40.780Z,81.72
2018-02-10T04:53:06.798Z,81.86
2018-02-10T04:55:32.803Z,81.91
2018-02-10T04:57:59.154Z,82.06
2018-02-10T05:00:25.144Z,82.68
2018-02-10T05:02:51.100Z,83.18
2018-02-10T05:05:17.106Z,82.75
2018-02-10T05:07:43.119Z,82.31
2018-02-10T05:10:09.145Z,82.33
2018-02-10T05:12:35.248Z,82.69
2018-02-10T05:15:01.361Z,82.96
2018-02-10T05:17:27.313Z,82.87
2018-02-10T05:19:53.312Z,84.09
2018-02-10T05:22:19.336Z,83.74
2018-02-10T05:24:45.328Z,83.04
2018-02-10T05:27:11.349Z,82.84
2018-02-10T05:29:37.369Z,82.77
2018-02-10T05:32:03.364Z,82.85
2018-02-10T05:34:29.408Z,82.99
2018-02-10T05:36:55.358Z,83.66
2018-02-10T05:39:21.384Z,83.66
2018-02-10T05:41:47.397Z,84.05
2018-02-10T05:44:13.421Z,83.94
2018-02-10T05:46:39.427Z,82.74
2018-02-10T05:49:05.380Z,82.68
2018-02-10T05:51:31.370Z,82.62
2018-02-10T05:53:57.390Z,82.84
2018-02-10T05:56:23.429Z,83.40
2018-02-10T05:58:49.413Z,83.78
2018-02-10T06:01:15.456Z,83.84
2018-02-10T06:03:41.430Z,83.69
2018-02-10T06:06:07.416Z,83.78
2018-02-10T06:08:33.677Z,83.81
2018-02-10T06:10:59.670Z,84.66
2018-02-10T06:13:25.661Z,84.47
2018-02-10T06:15:51.691Z,84.12
2018-02-10T06:18:17.753Z,83.05
2018-02-10T06:20:43.785Z,82.21
2018-02-10T06:23:09.757Z,81.70
2018-02-10T06:25:35.761Z,81.30
2018-02-10T06:28:01.801Z,82.32
2018-02-10T06:30:27.801Z,82.47
2018-02-10T06:32:53.838Z,82.79
2018-02-10T06:35:19.863Z,82.40
2018-02-10T06:37:45.889Z,82.96
2018-02-10T06:40:11.871Z,83.09
2018-02-10T06:42:37.909Z,83.24
2018-02-10T06:45:04.010Z,83.00
2018-02-10T06:47:29.986Z,82.91
2018-02-10T06:49:56.247Z,82.32
2018-02-10T06:52:22.255Z,82.11
2018-02-10T06:54:48.300Z,82.60
2018-02-10T06:57:14.317Z,82.93
2018-02-10T06:59:40.317Z,82.88
2018-02-10T07:02:06.304Z,83.09
2018-02-10T07:04:32.325Z,83.36
2018-02-10T07:06:58.339Z,83.48
2018-02-10T07:09:24.666Z,83.23
2018-02-10T07:11:50.692Z,83.06
2018-02-10T07:14:16.673Z,83.45
2018-02-10T07:16:42.797Z,83.53
2018-02-10T07:19:08.754Z,83.36
2018-02-10T07:21:34.786Z,83.46
2018-02-10T07:24:00.773Z,83.11
2018-02-10T07:26:26.809Z,83.21
2018-02-10T07:28:52.736Z,83.40
2018-02-10T07:31:18.713Z,83.52
2018-02-10T07:33:44.724Z,82.54
2018-02-10T07:36:10.748Z,82.29
2018-02-10T07:38:36.844Z,82.43
2018-02-10T07:41:09.974Z,82.22
2018-02-10T07:43:36.036Z,82.33
2018-02-10T07:46:01.993Z,82.63
2018-02-10T07:48:27.967Z,82.58
2018-02-10T07:50:53.985Z,82.87
2018-02-10T07:53:20.005Z,82.99
2018-02-10T07:55:46.000Z,83.11
2018-02-10T07:58:12.029Z,83.25
2018-02-10T08:00:38.093Z,83.35
2018-02-10T08:03:04.484Z,84.09
2018-02-10T08:05:30.564Z,84.20
2018-02-10T08:07:56.518Z,84.27
2018-02-10T08:10:22.508Z,83.58
2018-02-10T08:12:48.672Z,83.59
2018-02-10T08:15:14.676Z,83.66
2018-02-10T08:17:40.690Z,83.83
2018-02-10T08:20:06.749Z,83.61
2018-02-10T08:22:33.090Z,83.63
2018-02-10T08:24:59.124Z,83.53
2018-02-10T08:27:25.160Z,83.22
2018-02-10T08:29:51.176Z,83.47
2018-02-10T08:32:17.176Z,83.60
2018-02-10T08:34:43.181Z,83.62
2018-02-10T08:37:09.259Z,82.50
2018-02-10T08:39:35.251Z,82.01
2018-02-10T08:42:01.653Z,82.49
2018-02-10T08:44:27.674Z,81.45
2018-02-10T08:46:53.765Z,81.29
2018-02-10T08:49:19.786Z,81.30
2018-02-10T08:51:45.813Z,82.35
2018-02-10T08:54:11.823Z,83.00
2018-02-10T08:56:37.828Z,82.84
2018-02-10T08:59:03.881Z,83.27
2018-02-10T09:01:29.938Z,82.93
2018-02-10T09:03:55.985Z,82.53
2018-02-10T09:06:22.081Z,82.11
2018-02-10T09:08:48.050Z,81.86
2018-02-10T09:11:14.094Z,82.08
2018-02-10T09:13:40.131Z,82.09
2018-02-10T09:16:06.153Z,82.81
2018-02-10T09:18:32.164Z,82.87
2018-02-10T09:20:58.173Z,82.58
2018-02-10T09:23:24.248Z,83.08
2018-02-10T09:25:50.221Z,82.60
2018-02-10T09:28:16.565Z,82.80
2018-02-10T09:30:42.553Z,82.79
2018-02-10T09:33:08.562Z,82.76
2018-02-10T09:35:34.632Z,82.84
2018-02-10T09:38:00.693Z,82.53
2018-02-10T09:40:26.729Z,82.81
2018-02-10T09:42:52.728Z,83.26
2018-02-10T09:45:18.970Z,83.61
2018-02-10T09:47:44.959Z,83.34
2018-02-10T09:50:11.057Z,83.13
2018-02-10T09:52:37.082Z,83.80
2018-02-10T09:55:03.107Z,84.07
2018-02-10T09:57:29.141Z,84.05
2018-02-10T09:59:55.137Z,83.40
2018-02-10T10:02:21.145Z,83.34
2018-02-10T10:04:47.148Z,83.04
2018-02-10T10:07:13.104Z,83.00
2018-02-10T10:09:39.133Z,84.16
2018-02-10T10:12:05.192Z,83.48
2018-02-10T10:14:31.196Z,82.61
2018-02-10T10:16:57.607Z,82.49
2018-02-10T10:19:23.605Z,82.78
2018-02-10T10:21:49.774Z,83.44
2018-02-10T10:24:15.770Z,82.97
2018-02-10T10:26:41.813Z,82.81
2018-02-10T10:29:07.863Z,83.09
2018-02-10T10:31:33.937Z,82.86
2018-02-10T10:33:59.927Z,82.64
2018-02-10T10:36:25.949Z,82.92
2018-02-10T10:38:51.963Z,82.93
2018-02-10T10:41:17.979Z,83.70
2018-02-10T10:43:44.010Z,83.68
2018-02-10T10:46:10.022Z,83.87
2018-02-10T10:48:36.103Z,83.45
2018-02-10T10:51:02.113Z,83.50
2018-02-10T10:53:28.301Z,83.19
2018-02-10T10:55:54.326Z,83.62
2018-02-10T10:58:20.377Z,84.10
2018-02-10T11:00:46.400Z,84.69
2018-02-10T11:03:12.412Z,83.60
2018-02-10T11:05:38.790Z,83.63
2018-02-10T11:08:04.938Z,83.05
2018-02-10T11:10:31.093Z,82.97
2018-02-10T11:12:57.109Z,83.18
2018-02-10T11:15:23.140Z,83.83
2018-02-10T11:17:49.533Z,83.05
2018-02-10T11:20:15.549Z,82.72
2018-02-10T11:22:41.544Z,82.54
2018-02-10T11:25:07.612Z,82.45
2018-02-10T11:27:33.668Z,82.66
2018-02-10T11:29:59.716Z,82.56
2018-02-10T11:32:25.744Z,82.71
2018-02-10T11:34:52.063Z,83.10
2018-02-10T11:37:18.078Z,83.85
2018-02-10T11:39:44.025Z,83.75
2018-02-10T11:42:10.238Z,83.56
2018-02-10T11:44:36.270Z,83.76
2018-02-10T11:47:02.585Z,83.63
2018-02-10T11:49:28.590Z,83.92
2018-02-10T11:51:54.736Z,83.53
2018-02-10T11:54:21.164Z,83.66
2018-02-10T11:56:47.175Z,83.84
2018-02-10T11:59:13.192Z,84.09
2018-02-10T12:01:39.398Z,83.69
2018-02-10T12:04:05.357Z,83.91
2018-02-10T12:06:31.413Z,83.56
2018-02-10T12:08:57.454Z,83.17
2018-02-10T12:11:24.185Z,83.15
2018-02-10T12:13:50.232Z,83.38
2018-02-10T12:16:16.258Z,82.84
2018-02-10T12:19:03.812Z,83.29
2018-02-10T12:21:29.833Z,82.73
2018-02-10T12:23:55.888Z,83.04
2018-02-10T12:26:21.934Z,83.02
2018-02-10T12:28:48.429Z,82.55
2018-02-10T12:31:14.480Z,82.72
2018-02-10T12:33:40.466Z,82.99
2018-02-10T12:36:06.591Z,82.92
2018-02-10T12:38:32.724Z,82.31
2018-02-10T12:40:59.643Z,82.29
2018-02-10T12:43:25.651Z,82.44
2018-02-10T12:45:52.115Z,82.47
2018-02-10T12:48:24.248Z,82.50
2018-02-10T12:50:50.259Z,82.31
2018-02-10T12:53:16.365Z,82.01
2018-02-10T12:55:42.449Z,82.37
2018-02-10T12:58:08.480Z,81.57
2018-02-10T13:00:34.489Z,81.48
2018-02-10T13:03:00.866Z,81.86
2018-02-10T13:05:26.981Z,81.88
2018-02-10T13:07:52.945Z,82.80
2018-02-10T13:10:18.990Z,82.95
2018-02-10T13:12:45.066Z,82.81
2018-02-10T13:15:11.106Z,81.71
2018-02-10T13:17:37.111Z,81.38
2018-02-10T13:20:03.670Z,81.43
2018-02-10T13:22:29.744Z,82.34
2018-02-10T13:24:55.769Z,81.43
2018-02-10T13:27:21.841Z,81.85
2018-02-10T13:29:47.870Z,81.57
2018-02-10T13:32:13.890Z,81.50
2018-02-10T13:34:39.978Z,81.55
2018-02-10T13:37:06.472Z,81.65
2018-02-10T13:39:33.232Z,82.10
2018-02-10T13:41:59.306Z,81.54
2018-02-10T13:44:25.404Z,81.23
2018-02-10T13:46:51.386Z,81.05
2018-02-10T13:49:17.501Z,81.54
2018-02-10T13:51:43.628Z,81.55
2018-02-10T13:54:09.675Z,82.21
2018-02-10T13:56:35.689Z,81.92
2018-02-10T13:59:02.111Z,82.10
2018-02-10T14:01:28.179Z,81.61
2018-02-10T14:03:54.145Z,81.91
2018-02-10T14:06:20.533Z,81.81
2018-02-10T14:08:51.580Z,82.08
2018-02-10T14:11:29.735Z,81.89
2018-02-10T14:13:55.833Z,81.89
2018-02-10T14:16:22.238Z,81.98
2018-02-10T14:18:48.347Z,82.04
2018-02-10T14:21:14.398Z,82.06
2018-02-10T14:23:40.538Z,81.96
2018-02-10T14:26:06.619Z,82.22
2018-02-10T14:28:32.730Z,82.37
2018-02-10T14:30:58.746Z,82.19
2018-02-10T14:33:25.099Z,82.72
2018-02-10T14:35:51.123Z,82.56
2018-02-10T14:38:17.201Z,82.54
2018-02-10T14:40:43.462Z,82.59
2018-02-10T14:43:09.522Z,82.52
2018-02-10T14:45:35.864Z,82.55
2018-02-10T14:48:01.865Z,82.40
2018-02-10T14:50:27.904Z,82.56
2018-02-10T14:52:53.939Z,82.32
2018-02-10T14:55:19.897Z,82.25
2018-02-10T14:57:46.401Z,82.46
2018-02-10T15:00:12.390Z,82.31
2018-02-10T15:02:38.404Z,81.79
2018-02-10T15:05:04.849Z,81.82
2018-02-10T15:07:30.901Z,81.78
2018-02-10T15:09:56.912Z,81.43
2018-02-10T15:12:22.940Z,81.42
2018-02-10T15:14:48.947Z,81.64
2018-02-10T15:17:15.021Z,81.73
2018-02-10T15:19:41.032Z,81.25
2018-02-10T15:22:07.100Z,81.17
2018-02-10T15:24:33.145Z,81.31
2018-02-10T15:26:59.613Z,81.17
2018-02-10T15:32:34.350Z,80.93
2018-02-10T15:35:01.080Z,81.12
2018-02-10T15:37:27.931Z,81.25
2018-02-10T15:39:53.968Z,81.28
2018-02-10T15:42:21.064Z,81.43
2018-02-10T15:44:47.185Z,81.29
2018-02-10T15:47:13.227Z,81.38
2018-02-10T15:49:39.652Z,81.28
2018-02-10T15:52:05.679Z,81.57
2018-02-10T15:54:31.691Z,81.25
2018-02-10T15:56:57.747Z,81.13
2018-02-10T15:59:23.755Z,80.89
2018-02-10T16:01:49.862Z,80.94
2018-02-10T16:04:15.844Z,80.87
2018-02-10T16:06:42.246Z,81.25
2018-02-10T16:09:08.238Z,81.32
2018-02-10T16:11:34.233Z,81.51
2018-02-10T16:14:00.289Z,81.31
2018-02-10T16:16:26.290Z,81.36
2018-02-10T16:18:52.345Z,81.59
2018-02-10T16:21:18.421Z,81.51
2018-02-10T16:23:44.762Z,81.11
2018-02-10T16:26:10.726Z,81.00
2018-02-10T16:28:36.758Z,80.94
2018-02-10T16:31:03.019Z,80.92
2018-02-10T16:33:29.082Z,80.99
2018-02-10T16:35:55.536Z,81.28
2018-02-10T16:38:21.552Z,81.02
2018-02-10T16:40:47.538Z,81.04
2018-02-10T16:43:13.712Z,81.44
2018-02-10T16:45:39.776Z,81.25
2018-02-10T16:48:06.126Z,81.66
2018-02-10T16:50:32.096Z,81.56
2018-02-10T16:52:58.508Z,81.52
2018-02-10T16:55:24.510Z,81.26
2018-02-10T16:57:50.497Z,81.20
2018-02-10T17:00:16.496Z,81.23
2018-02-10T17:02:42.540Z,81.25
2018-02-10T17:05:08.570Z,81.34
2018-02-10T17:07:34.568Z,81.35
2018-02-10T17:10:00.900Z,81.64
2018-02-10T17:12:26.914Z,81.73
2018-02-10T17:14:53.232Z,82.03
2018-02-10T17:17:19.291Z,82.17
2018-02-10T17:19:45.338Z,82.02
2018-02-10T17:22:11.530Z,81.95
2018-02-10T17:24:37.650Z,82.15
2018-02-10T17:27:03.682Z,82.32
2018-02-10T17:29:30.070Z,82.22
2018-02-10T17:31:56.110Z,82.21
2018-02-10T17:34:22.095Z,82.37
2018-02-10T17:36:48.111Z,82.24
2018-02-10T17:39:14.456Z,82.29
2018-02-10T17:41:40.494Z,82.36
2018-02-10T17:44:06.570Z,82.39
2018-02-10T17:46:32.625Z,82.58
2018-02-10T17:48:58.644Z,82.65
2018-02-10T17:51:24.658Z,82.74
2018-02-10T17:53:50.646Z,82.91
2018-02-10T17:56:17.112Z,83.00
2018-02-10T17:58:43.171Z,83.09
2018-02-10T18:01:09.240Z,82.92
2018-02-10T18:03:35.270Z,83.06
2018-02-10T18:06:01.357Z,83.83
2018-02-10T18:08:27.397Z,84.29
2018-02-10T18:10:53.418Z,83.47
2018-02-10T18:13:19.461Z,82.95
2018-02-10T18:15:45.492Z,83.81
2018-02-10T18:18:11.851Z,83.77
2018-02-10T18:20:37.985Z,84.00
2018-02-10T18:23:04.062Z,83.21
2018-02-10T18:25:30.107Z,83.27
2018-02-10T18:27:56.090Z,83.00
2018-02-10T18:30:22.140Z,83.36
2018-02-10T18:32:48.184Z,83.63
2018-02-10T18:35:14.558Z,83.81
2018-02-10T18:37:40.572Z,83.75
2018-02-10T18:40:06.632Z,84.03
2018-02-10T18:42:32.669Z,84.05
2018-02-10T18:44:58.637Z,84.14
2018-02-10T18:47:24.742Z,84.12
2018-02-10T18:49:50.778Z,84.19
2018-02-10T18:52:17.241Z,84.32
2018-02-10T18:54:43.269Z,84.60
2018-02-10T18:57:09.341Z,84.75
2018-02-10T18:59:35.366Z,85.24
2018-02-10T19:02:01.413Z,85.17
2018-02-10T19:04:27.435Z,85.17
2018-02-10T19:06:53.455Z,85.25
2018-02-10T19:09:19.483Z,85.29
2018-02-10T19:11:45.548Z,85.21
2018-02-10T19:14:12.165Z,85.27
2018-02-10T19:16:38.174Z,85.55
2018-02-10T19:19:04.193Z,86.04
2018-02-10T19:21:30.311Z,85.95
2018-02-10T19:23:56.341Z,86.21
2018-02-10T19:26:22.361Z,86.54
2018-02-10T19:28:48.354Z,86.45
2018-02-10T19:31:14.684Z,86.62
2018-02-10T19:33:40.681Z,86.70
2018-02-10T19:36:06.718Z,86.51
2018-02-10T19:38:32.751Z,86.86
2018-02-10T19:40:58.810Z,87.29
2018-02-10T19:43:25.108Z,87.19
2018-02-10T19:45:51.144Z,87.33
2018-02-10T19:48:17.181Z,87.33
2018-02-10T19:50:43.286Z,87.44
2018-02-10T19:53:09.325Z,87.38
2018-02-10T19:55:35.309Z,87.59
2018-02-10T19:58:01.730Z,87.68
2018-02-10T20:00:27.789Z,87.67
2018-02-10T20:02:53.802Z,87.66
2018-02-10T20:05:20.229Z,87.65
2018-02-10T20:07:46.330Z,87.71
2018-02-10T20:10:12.322Z,87.60
2018-02-10T20:12:38.338Z,87.68
2018-02-10T20:15:04.438Z,87.64
2018-02-10T20:17:30.481Z,87.56
2018-02-10T20:20:11.178Z,87.57
2018-02-10T20:22:37.248Z,87.62
2018-02-10T20:25:03.532Z,87.46
2018-02-10T20:27:29.546Z,87.67
2018-02-10T20:29:55.643Z,87.53
2018-02-10T20:32:21.650Z,87.66
2018-02-10T20:34:47.689Z,87.64
2018-02-10T20:37:15.162Z,87.65
2018-02-10T20:39:41.241Z,87.84
2018-02-10T20:42:07.605Z,88.00
2018-02-10T20:44:33.688Z,88.24
2018-02-10T20:46:59.761Z,88.29
2018-02-10T20:49:25.817Z,88.19
2018-02-10T20:51:51.825Z,88.31
2018-02-10T20:54:17.854Z,88.40
2018-02-10T20:56:43.873Z,88.31
2018-02-10T20:59:10.316Z,88.32
2018-02-10T21:01:36.345Z,88.24
2018-02-10T21:04:02.347Z,88.21
2018-02-10T21:06:28.403Z,87.91
2018-02-10T21:08:54.734Z,87.95
2018-02-10T21:11:21.150Z,87.88
2018-02-10T21:13:47.189Z,88.09
2018-02-10T21:16:13.211Z,87.81
2018-02-10T21:18:39.249Z,87.86
2018-02-10T21:21:05.288Z,87.73
2018-02-10T21:23:31.313Z,87.84
2018-02-10T21:25:57.348Z,88.07
2018-02-10T21:28:23.362Z,88.07
2018-02-10T21:30:49.443Z,87.51
2018-02-10T21:33:15.869Z,87.42
2018-02-10T21:35:41.938Z,87.33
2018-02-10T21:38:08.001Z,87.33
2018-02-10T21:40:34.129Z,87.30
2018-02-10T21:43:00.182Z,87.05
2018-02-10T21:45:26.622Z,87.14
2018-02-10T21:47:52.640Z,87.00
2018-02-10T21:50:18.666Z,86.99
2018-02-10T21:52:44.687Z,87.30
2018-02-10T21:55:10.748Z,87.46
2018-02-10T21:57:37.161Z,87.45
2018-02-10T22:00:03.470Z,87.55
2018-02-10T22:02:29.488Z,87.74
2018-02-10T22:04:55.529Z,87.75
2018-02-10T22:07:22.478Z,87.81
2018-02-10T22:09:48.533Z,87.75
2018-02-10T22:12:16.000Z,87.78
2018-02-10T22:14:43.222Z,87.75
2018-02-10T22:17:09.232Z,87.57
2018-02-10T22:19:35.253Z,87.35
2018-02-10T22:22:01.269Z,87.35
2018-02-10T22:24:27.280Z,87.31
2018-02-10T22:26:53.672Z,87.03
2018-02-10T22:29:19.771Z,87.00
2018-02-10T22:31:45.864Z,86.87
2018-02-10T22:34:11.885Z,86.71
2018-02-10T22:36:37.988Z,86.54
2018-02-10T22:39:04.531Z,86.53
2018-02-10T22:41:30.511Z,86.50
2018-02-10T22:43:56.536Z,86.39
2018-02-10T22:46:22.572Z,86.11
2018-02-10T22:48:48.569Z,86.14
2018-02-10T22:51:14.908Z,85.96
2018-02-10T22:53:41.013Z,85.96
2018-02-10T22:56:07.116Z,86.01
2018-02-10T22:58:33.124Z,86.00
2018-02-10T23:01:05.163Z,85.82
2018-02-10T23:03:31.246Z,85.89
2018-02-10T23:05:57.276Z,86.04
2018-02-10T23:08:23.764Z,86.04
2018-02-10T23:10:49.837Z,86.03
2018-02-10T23:13:15.884Z,86.11
2018-02-10T23:15:42.152Z,86.15
2018-02-10T23:18:08.162Z,86.17
2018-02-10T23:20:34.196Z,86.00
2018-02-10T23:23:00.292Z,85.84
2018-02-10T23:25:26.280Z,85.90
2018-02-10T23:27:52.696Z,85.81
2018-02-10T23:30:18.727Z,85.75
2018-02-10T23:32:51.654Z,85.76
2018-02-10T23:35:29.681Z,85.72
2018-02-10T23:37:55.693Z,85.74
2018-02-10T23:40:21.722Z,85.64
2018-02-10T23:42:47.761Z,85.87
2018-02-10T23:45:14.328Z,85.43
2018-02-10T23:47:40.369Z,85.32
2018-02-10T23:50:06.375Z,85.11
2018-02-10T23:52:32.389Z,85.30
2018-02-10T23:54:58.392Z,85.47
2018-02-10T23:57:24.422Z,85.40
2018-02-10T23:59:50.441Z,85.31
